Time;durP1;ratioP1;P1;durP2;ratioP2;P2;SDS_P1;SDS_P2;PMS_P1;PMS_P2;Temp;Humidity;BMP_temperature;BMP_pressure;BME280_temperature;BME280_humidity;BME280_pressure;Samples;Min_cycle;Max_cycle;Signal;HPM_P1;HPM_P2
2022/04/09 00:00:25;;;;;;;;;7.00;7.00;;;;;5.80;70.79;100766.97;4918420;28;45467;-81
2022/04/09 00:02:51;;;;;;;;;7.00;6.25;;;;;5.84;70.51;100768.78;4917188;28;45608;-81
2022/04/09 00:05:16;;;;;;;;;5.00;5.00;;;;;5.80;70.75;100759.13;4922438;28;46833;-81
2022/04/09 00:07:42;;;;;;;;;5.50;5.50;;;;;5.77;70.76;100764.31;4905905;28;45485;-81
2022/04/09 00:10:11;;;;;;;;;4.25;4.25;;;;;5.72;70.87;100759.00;4923905;28;45462;-81
2022/04/09 00:12:51;;;;;;;;;3.00;3.00;;;;;5.88;70.73;100789.75;4905981;28;45296;-82
2022/04/09 00:15:20;;;;;;;;;6.75;6.00;;;;;5.87;70.78;100784.50;4906523;28;47045;-82
2022/04/09 00:17:52;;;;;;;;;7.25;5.25;;;;;5.91;70.46;100788.94;4903436;28;45318;-83
2022/04/09 00:20:22;;;;;;;;;7.00;6.00;;;;;5.95;70.81;100785.53;4903423;28;45379;-82
2022/04/09 00:22:56;;;;;;;;;6.75;6.00;;;;;5.95;70.64;100788.16;4894863;28;45362;-81
2022/04/09 00:25:24;;;;;;;;;3.75;3.00;;;;;6.00;70.39;100796.94;4905860;28;47076;-80
2022/04/09 00:27:52;;;;;;;;;4.25;4.25;;;;;6.02;70.38;100803.06;4905746;28;45280;-82
2022/04/09 00:30:18;;;;;;;;;7.00;6.75;;;;;5.91;70.60;100786.31;4923267;28;45350;-82
2022/04/09 00:32:51;;;;;;;;;10.00;8.00;;;;;5.90;70.37;100780.19;4905652;28;45628;-82
2022/04/09 00:35:33;;;;;;;;;7.50;6.00;;;;;6.04;70.52;100804.00;4923346;28;46283;-82
2022/04/09 00:38:08;;;;;;;;;6.50;6.00;;;;;6.12;70.19;100804.06;4906666;28;45418;-82
2022/04/09 00:40:34;;;;;;;;;3.25;3.25;;;;;6.04;70.44;100790.00;4923715;28;45308;-82
2022/04/09 00:43:01;;;;;;;;;6.75;5.50;;;;;5.98;70.29;100782.97;4905803;28;45463;-83
2022/04/09 00:45:30;;;;;;;;;7.00;5.75;;;;;6.21;70.15;100822.53;4920302;28;45428;-82
2022/04/09 00:47:59;;;;;;;;;7.25;4.75;;;;;5.99;69.97;100783.84;4906557;28;45265;-82
2022/04/09 00:50:24;;;;;;;;;5.50;5.50;;;;;6.23;69.92;100822.53;4905938;28;45294;-81
2022/04/09 00:52:53;;;;;;;;;5.00;5.00;;;;;6.19;69.87;100822.50;4906153;28;45677;-82
2022/04/09 00:56:12;;;;;;;;;6.00;5.00;;;;;6.28;69.76;100828.72;4902393;28;47127;-82
2022/04/09 00:58:13;;;;;;;;;7.75;7.25;;;;;6.14;69.61;100795.41;4922763;28;45268;-82
2022/04/09 01:00:40;;;;;;;;;7.75;6.50;;;;;6.34;69.60;100836.69;4896957;28;45455;-82
2022/04/09 01:03:06;;;;;;;;;7.50;5.50;;;;;6.24;69.68;100825.19;4905304;28;45542;-81
2022/04/09 01:05:32;;;;;;;;;3.00;3.00;;;;;6.25;69.23;100821.72;4929894;28;46318;-81
2022/04/09 01:07:58;;;;;;;;;6.50;5.75;;;;;6.32;69.60;100849.72;4916929;28;45388;-83
2022/04/09 01:10:26;;;;;;;;;3.50;2.00;;;;;6.25;69.33;100839.13;4922962;28;45256;-83
2022/04/09 01:12:54;;;;;;;;;4.50;4.00;;;;;6.31;69.04;100842.75;4922342;28;45426;-82
2022/04/09 01:15:20;;;;;;;;;6.00;3.75;;;;;6.36;69.17;100862.00;4922668;28;46675;-82
2022/04/09 01:17:48;;;;;;;;;3.75;2.50;;;;;6.27;69.34;100846.16;4907667;28;45272;-82
2022/04/09 01:20:18;;;;;;;;;1.50;1.50;;;;;6.22;69.18;100841.69;4903706;29;45293;-82
2022/04/09 01:22:44;;;;;;;;;1.00;1.00;;;;;6.31;69.24;100860.16;4903187;29;45463;-82
2022/04/09 01:25:09;;;;;;;;;2.00;2.00;;;;;6.26;69.17;100851.38;4902167;28;46993;-82
2022/04/09 01:27:35;;;;;;;;;3.50;2.00;;;;;6.18;69.27;100852.13;4903379;29;45222;-81
2022/04/09 01:30:12;;;;;;;;;2.00;1.00;;;;;6.17;69.55;100854.69;4899453;28;45281;-81
2022/04/09 01:32:37;;;;;;;;;2.00;2.00;;;;;6.20;69.95;100878.25;4905607;28;45571;-81
2022/04/09 01:35:05;;;;;;;;;2.75;1.75;;;;;6.02;69.55;100851.84;4922166;28;46249;-81
2022/04/09 01:37:31;;;;;;;;;2.00;2.00;;;;;6.15;69.34;100877.34;4889864;28;45519;-82
2022/04/09 01:39:57;;;;;;;;;2.00;2.00;;;;;6.06;69.42;100870.19;4903756;29;45493;-82
2022/04/09 01:42:28;;;;;;;;;2.50;2.50;;;;;6.12;69.53;100882.50;4911134;28;45558;-82
2022/04/09 01:44:55;;;;;;;;;4.75;3.00;;;;;6.12;69.50;100886.00;4894985;29;46359;-82
2022/04/09 01:47:20;;;;;;;;;2.50;2.50;;;;;6.16;69.69;100900.00;4903038;28;45690;-81
2022/04/09 01:49:46;;;;;;;;;3.00;3.00;;;;;6.18;69.52;100904.41;4886238;29;45548;-81
2022/04/09 01:52:11;;;;;;;;;4.75;3.25;;;;;6.01;70.11;100877.09;4903154;29;45473;-82
2022/04/09 01:54:37;;;;;;;;;5.50;5.25;;;;;6.11;70.28;100906.88;4913336;28;45462;-82
2022/04/09 01:57:03;;;;;;;;;4.00;4.00;;;;;6.02;69.79;100899.75;4888532;29;45408;-81
2022/04/09 01:59:29;;;;;;;;;3.25;3.25;;;;;5.96;69.68;100887.47;4898136;28;45507;-82
2022/04/09 02:01:56;;;;;;;;;4.00;3.00;;;;;6.11;69.33;100902.53;4901119;29;45436;-82
2022/04/09 02:04:22;;;;;;;;;4.25;3.00;;;;;6.06;69.60;100892.84;4903118;29;45314;-82
2022/04/09 02:06:48;;;;;;;;;5.00;5.00;;;;;6.19;69.85;100893.06;4905038;29;45252;-82
2022/04/09 02:09:14;;;;;;;;;4.50;3.00;;;;;6.26;69.81;100901.03;4924781;28;45353;-82
2022/04/09 02:11:41;;;;;;;;;5.25;3.00;;;;;6.19;69.73;100877.38;4908194;28;45522;-82
2022/04/09 02:14:09;;;;;;;;;6.00;4.00;;;;;6.19;69.79;100871.28;4906139;28;46239;-82
2022/04/09 02:16:37;;;;;;;;;3.75;3.75;;;;;6.34;69.50;100892.47;4920713;28;45378;-82
2022/04/09 02:19:03;;;;;;;;;3.00;3.00;;;;;6.37;69.44;100881.16;4908171;28;45350;-83
2022/04/09 02:21:29;;;;;;;;;5.00;5.00;;;;;6.28;69.11;100876.69;4906817;28;45352;-82
2022/04/09 02:24:14;;;;;;;;;5.50;4.75;;;;;6.24;69.45;100872.25;4904621;28;48100;-82
2022/04/09 02:26:39;;;;;;;;;3.00;2.75;;;;;6.21;69.44;100885.28;4913934;28;45240;-82
2022/04/09 02:29:05;;;;;;;;;6.00;3.75;;;;;6.19;69.33;100882.63;4912330;28;45694;-82
2022/04/09 02:31:30;;;;;;;;;6.75;5.00;;;;;6.30;69.37;100908.06;4900070;29;45487;-82
2022/04/09 02:33:56;;;;;;;;;6.75;5.50;;;;;6.15;69.64;100887.78;4889076;28;47822;-82
2022/04/09 02:36:22;;;;;;;;;6.75;5.50;;;;;6.25;69.42;100899.25;4908329;28;45442;-82
2022/04/09 02:38:48;;;;;;;;;7.25;6.75;;;;;6.23;69.44;100903.56;4895143;28;45450;-82
2022/04/09 02:41:13;;;;;;;;;5.00;5.00;;;;;6.34;69.10;100928.19;4905956;28;45408;-82
2022/04/09 02:43:43;;;;;;;;;5.50;3.75;;;;;6.24;69.34;100921.91;4909476;28;47212;-82
2022/04/09 02:46:09;;;;;;;;;7.25;6.75;;;;;6.31;69.47;100929.00;4925087;28;45392;-82
2022/04/09 02:48:34;;;;;;;;;6.00;4.25;;;;;6.23;69.67;100916.66;4924683;28;45224;-82
2022/04/09 02:51:00;;;;;;;;;8.00;7.50;;;;;6.19;69.72;100905.28;4917863;28;45491;-82
2022/04/09 02:53:25;;;;;;;;;8.50;7.00;;;;;6.22;69.90;100912.28;4905581;28;45479;-82
2022/04/09 02:55:51;;;;;;;;;7.00;7.00;;;;;6.25;70.00;100925.41;4912679;28;45481;-82
2022/04/09 02:58:19;;;;;;;;;8.00;7.00;;;;;6.23;70.02;100938.47;4907261;28;45569;-82
2022/04/09 03:00:45;;;;;;;;;9.75;6.50;;;;;6.20;70.27;100951.44;4900192;29;45274;-82
2022/04/09 03:03:11;;;;;;;;;5.75;5.75;;;;;6.13;70.53;100958.31;4905070;28;46216;-82
2022/04/09 03:05:36;;;;;;;;;6.75;5.50;;;;;6.05;70.91;100940.75;4905350;28;45176;-82
2022/04/09 03:08:02;;;;;;;;;5.50;3.75;;;;;6.17;71.11;100969.72;4911468;28;45291;-82
2022/04/09 03:10:34;;;;;;;;;6.75;6.75;;;;;6.13;71.02;100963.56;4899700;29;45335;-82
2022/04/09 03:13:05;;;;;;;;;8.00;8.00;;;;;5.93;70.93;100931.84;4903682;28;47047;-83
2022/04/09 03:15:34;;;;;;;;;6.75;5.00;;;;;6.08;71.29;100957.34;4897663;28;45526;-81
2022/04/09 03:17:59;;;;;;;;;6.00;6.00;;;;;6.08;70.69;100966.94;4906298;28;45428;-81
2022/04/09 03:20:28;;;;;;;;;7.00;6.75;;;;;6.03;71.02;100958.13;4897242;29;45539;-81
2022/04/09 03:22:57;;;;;;;;;7.00;6.25;;;;;5.99;70.98;100956.31;4903641;28;46922;-81
2022/04/09 03:25:23;;;;;;;;;5.00;5.00;;;;;5.97;70.89;100953.69;4906944;29;45447;-82
2022/04/09 03:27:50;;;;;;;;;5.25;4.00;;;;;6.08;70.86;100980.00;4892251;28;45529;-82
2022/04/09 03:30:18;;;;;;;;;5.00;3.75;;;;;5.95;70.60;100958.00;4924261;28;45517;-81
2022/04/09 03:32:50;;;;;;;;;6.75;5.75;;;;;6.05;70.88;100977.34;4889481;29;48197;-81
2022/04/09 03:35:16;;;;;;;;;5.25;5.25;;;;;5.91;70.76;100950.94;4911563;28;45758;-81
2022/04/09 03:37:42;;;;;;;;;5.00;3.75;;;;;5.90;70.92;100957.84;4903339;29;45189;-81
2022/04/09 03:40:08;;;;;;;;;7.25;6.00;;;;;6.11;71.18;100986.16;4898855;28;45528;-81
2022/04/09 03:42:37;;;;;;;;;7.50;7.50;;;;;6.11;70.76;100983.53;4915958;28;45279;-82
2022/04/09 03:45:03;;;;;;;;;10.00;7.50;;;;;6.01;70.90;100970.28;4907198;28;45764;-81
2022/04/09 03:47:31;;;;;;;;;6.00;6.00;;;;;6.12;70.73;100980.09;4906432;28;45302;-81
2022/04/09 03:49:57;;;;;;;;;7.25;6.75;;;;;6.17;70.61;101001.97;4903959;29;45380;-81
2022/04/09 03:52:24;;;;;;;;;10.25;7.75;;;;;6.06;70.61;100994.78;4904719;29;45784;-81
2022/04/09 03:54:52;;;;;;;;;6.00;6.00;;;;;5.99;70.30;100983.34;4904138;29;45433;-82
2022/04/09 03:57:19;;;;;;;;;3.75;3.75;;;;;6.03;70.57;100995.59;4905950;28;45490;-81
2022/04/09 03:59:44;;;;;;;;;6.75;5.25;;;;;5.97;70.44;100982.41;4906726;28;45623;-81
2022/04/09 04:02:10;;;;;;;;;8.00;7.00;;;;;6.11;70.66;101004.47;4904609;28;46070;-82
2022/04/09 04:04:37;;;;;;;;;4.50;4.50;;;;;6.21;70.62;101017.72;4904766;28;45324;-81
2022/04/09 04:07:03;;;;;;;;;5.25;5.25;;;;;6.16;70.67;101001.94;4889330;28;45343;-81
2022/04/09 04:09:36;;;;;;;;;7.50;7.50;;;;;6.16;70.36;100997.59;4906828;28;45464;-82
2022/04/09 04:12:02;;;;;;;;;8.00;6.75;;;;;5.99;70.49;100959.81;4915892;28;45238;-81
2022/04/09 04:14:31;;;;;;;;;8.00;6.00;;;;;6.24;70.56;101005.56;4902682;28;46230;-82
2022/04/09 04:16:56;;;;;;;;;7.00;6.25;;;;;6.25;70.78;101003.81;4922355;28;45466;-82
2022/04/09 04:19:22;;;;;;;;;8.00;6.75;;;;;6.30;70.76;100997.81;4908338;28;45566;-82
2022/04/09 04:21:48;;;;;;;;;9.50;8.50;;;;;6.24;70.62;100981.16;4911219;28;46614;-81
2022/04/09 04:24:13;;;;;;;;;9.25;8.75;;;;;6.35;70.31;100992.69;4908403;28;45394;-82
2022/04/09 04:26:39;;;;;;;;;8.50;7.00;;;;;6.34;70.15;101004.88;4903075;28;45408;-81
2022/04/09 04:29:05;;;;;;;;;12.75;11.00;;;;;6.25;70.08;100981.19;4886534;28;45401;-81
2022/04/09 04:31:30;;;;;;;;;9.75;9.75;;;;;6.36;70.20;100987.50;4902973;28;46860;-82
2022/04/09 04:33:56;;;;;;;;;9.00;7.00;;;;;6.41;70.25;100998.00;4904433;28;45490;-82
2022/04/09 04:36:24;;;;;;;;;10.00;8.50;;;;;6.34;70.08;100985.72;4900304;29;45365;-81
2022/04/09 04:38:50;;;;;;;;;11.50;10.50;;;;;6.44;70.17;101008.53;4903363;28;45808;-82
2022/04/09 04:41:16;;;;;;;;;4.25;4.25;;;;;6.47;70.00;101011.22;4887184;29;46897;-81
2022/04/09 04:43:43;;;;;;;;;9.75;9.00;;;;;6.30;69.80;100979.53;4904576;28;45807;-80
2022/04/09 04:46:09;;;;;;;;;7.50;7.50;;;;;6.38;69.92;101009.28;4902600;28;45392;-81
2022/04/09 04:48:34;;;;;;;;;11.75;11.75;;;;;6.35;69.88;101011.00;4916487;28;45479;-81
2022/04/09 04:51:00;;;;;;;;;12.00;10.25;;;;;6.36;69.92;101005.81;4903536;29;45557;-80
2022/04/09 04:53:25;;;;;;;;;10.00;10.00;;;;;6.41;69.93;101013.69;4887478;28;45564;-81
2022/04/09 04:55:51;;;;;;;;;12.75;9.00;;;;;6.39;70.31;101015.44;4898573;29;45404;-80
2022/04/09 04:58:20;;;;;;;;;6.00;6.00;;;;;6.38;70.02;101011.03;4905720;28;45304;-81
2022/04/09 05:00:46;;;;;;;;;9.00;8.50;;;;;6.52;69.99;101034.81;4922453;28;45494;-81
2022/04/09 05:03:11;;;;;;;;;8.75;8.75;;;;;6.36;69.76;101005.81;4908620;28;45473;-80
2022/04/09 05:05:37;;;;;;;;;8.00;8.00;;;;;6.54;69.96;101030.50;4910060;28;45439;-80
2022/04/09 05:08:02;;;;;;;;;11.75;11.50;;;;;6.51;69.48;101020.84;4905508;28;45329;-81
2022/04/09 05:10:31;;;;;;;;;11.00;9.50;;;;;6.44;69.38;100998.06;4897486;29;46769;-81
2022/04/09 05:13:23;;;;;;;;;;;;;;;;;;;;;
2022/04/09 05:15:55;;;;;;;;;5.00;3.00;;;;;6.48;69.44;101005.13;4903255;29;68911;-81
2022/04/09 05:18:21;;;;;;;;;10.00;7.75;;;;;6.45;68.90;101012.03;4883225;29;45496;-82
2022/04/09 05:20:47;;;;;;;;;6.75;6.75;;;;;6.50;69.06;101024.34;4883321;29;46119;-82
2022/04/09 05:23:13;;;;;;;;;6.00;5.00;;;;;6.55;68.96;101041.00;4883231;29;45471;-82
2022/04/09 05:25:39;;;;;;;;;6.50;6.50;;;;;6.39;68.82;101018.94;4896118;29;45457;-82
2022/04/09 05:28:17;;;;;;;;;5.50;5.50;;;;;6.40;68.86;101023.28;4884501;29;45427;-81
2022/04/09 05:30:56;;;;;;;;;7.00;7.00;;;;;6.55;68.45;101054.06;4898035;29;46155;-82
2022/04/09 05:33:26;;;;;;;;;6.25;6.00;;;;;6.48;68.42;101044.34;4885777;29;45553;-82
2022/04/09 05:35:58;;;;;;;;;7.00;7.00;;;;;6.60;68.54;101055.03;4914353;28;45333;-81
2022/04/09 05:38:24;;;;;;;;;6.50;6.50;;;;;6.53;68.77;101044.44;4898996;29;45452;-81
2022/04/09 05:40:51;;;;;;;;;8.25;6.75;;;;;6.52;68.74;101037.44;4900333;28;45585;-82
2022/04/09 05:43:17;;;;;;;;;9.00;7.50;;;;;6.56;68.35;101042.75;4892041;29;45417;-81
2022/04/09 05:45:43;;;;;;;;;8.25;8.00;;;;;6.68;68.66;101063.00;4902991;28;45343;-81
2022/04/09 05:48:08;;;;;;;;;9.25;7.50;;;;;6.71;68.70;101070.91;4913265;28;45450;-81
2022/04/09 05:50:34;;;;;;;;;7.00;7.00;;;;;6.65;68.89;101060.31;4902110;29;47330;-82
2022/04/09 05:53:00;;;;;;;;;7.25;7.25;;;;;6.63;68.55;101054.22;4903611;28;45269;-81
2022/04/09 05:55:25;;;;;;;;;6.25;5.50;;;;;6.67;68.39;101049.91;4892863;29;45469;-83
2022/04/09 05:57:51;;;;;;;;;8.00;7.00;;;;;6.71;68.15;101059.53;4906036;29;45538;-82
2022/04/09 06:00:19;;;;;;;;;7.75;7.00;;;;;6.59;68.06;101039.31;4901495;29;47619;-82
2022/04/09 06:02:49;;;;;;;;;7.50;7.00;;;;;6.71;68.07;101055.22;4902780;29;45585;-82
2022/04/09 06:05:14;;;;;;;;;7.00;7.00;;;;;6.78;68.09;101071.88;4902813;28;45201;-82
2022/04/09 06:07:40;;;;;;;;;6.25;6.25;;;;;6.63;68.00;101042.00;4910969;28;45347;-81
2022/04/09 06:10:06;;;;;;;;;8.50;8.00;;;;;6.83;68.23;101081.56;4921027;28;47393;-83
2022/04/09 06:12:33;;;;;;;;;8.75;8.00;;;;;6.73;68.35;101063.94;4906447;28;45561;-82
2022/04/09 06:15:26;;;;;;;;;7.00;7.00;;;;;6.83;68.39;101084.19;4904482;28;45423;-82
2022/04/09 06:18:13;;;;;;;;;;;;;;;;;;;;;
2022/04/09 06:24:11;;;;;;;;;11.00;11.00;;;;;6.96;68.30;101102.72;4867915;28;44847;-83
2022/04/09 06:27:39;;;;;;;;;;;;;;;;;;;;;
2022/04/09 06:30:09;;;;;;;;;8.00;8.00;;;;;7.03;68.32;101112.44;4828497;29;71749;-84
2022/04/09 06:32:43;;;;;;;;;10.00;10.00;;;;;7.05;67.75;101110.72;4814156;29;45407;-82
2022/04/09 06:35:14;;;;;;;;;12.00;9.50;;;;;6.89;67.70;101087.78;4910262;28;45441;-82
2022/04/09 06:37:52;;;;;;;;;13.00;12.00;;;;;7.01;67.93;101124.63;4928081;28;45359;-82
2022/04/09 06:41:04;;;;;;;;;11.50;11.50;;;;;6.90;68.03;101106.13;4923942;28;44759;-84
2022/04/09 06:44:11;;;;;;;;;;;;;;;;;;;;;
2022/04/09 06:55:09;;;;;;;;;10.75;10.75;;;;;7.09;68.59;101119.53;4896763;28;46166;-83
2022/04/09 07:02:12;;;;;;;;;14.25;13.25;;;;;7.14;68.34;101139.69;4850755;29;45174;-84
2022/04/09 07:05:10;;;;;;;;;12.00;9.75;;;;;7.12;68.31;101143.13;4819917;29;45401;-83
2022/04/09 07:08:01;;;;;;;;;9.50;9.50;;;;;7.06;68.52;101131.72;4821927;29;46911;-83
2022/04/09 07:10:24;;;;;;;;;9.50;9.50;;;;;7.28;68.57;101160.88;4870774;28;45533;-82
2022/04/09 07:12:50;;;;;;;;;13.50;12.25;;;;;7.19;68.54;101147.59;4908851;28;45529;-82
2022/04/09 07:15:38;;;;;;;;;12.00;12.00;;;;;7.19;68.93;101139.75;4908046;28;45405;-81
2022/04/09 07:19:13;;;;;;;;;;;;;;;;;;;;;
2022/04/09 07:21:54;;;;;;;;;;;;;;;;;;;;;
2022/04/09 07:24:20;;;;;;;;;8.25;7.75;;;;;7.44;68.50;101159.38;4925938;28;69565;-84
2022/04/09 07:26:46;;;;;;;;;9.00;8.75;;;;;7.60;68.30;101166.59;4926583;28;45581;-87
2022/04/09 07:29:29;;;;;;;;;8.00;8.00;;;;;7.71;67.96;101172.00;4925281;28;47439;-85
2022/04/09 07:35:35;;;;;;;;;8.25;8.25;;;;;7.72;67.73;101177.28;4854864;29;45684;-83
2022/04/09 07:41:20;;;;;;;;;9.25;9.00;;;;;7.46;68.03;101157.66;4809199;29;45547;-83
2022/04/09 07:44:06;;;;;;;;;10.75;10.75;;;;;7.58;68.10;101181.41;4864237;29;45342;-84
2022/04/09 07:46:32;;;;;;;;;12.75;9.00;;;;;7.45;68.11;101164.63;4864273;29;45477;-82
2022/04/09 07:48:57;;;;;;;;;13.50;12.75;;;;;7.46;68.46;101168.16;4850192;29;45561;-90
2022/04/09 07:51:23;;;;;;;;;13.00;12.75;;;;;7.50;68.30;101176.06;4847871;29;46554;-83
2022/04/09 07:56:43;;;;;;;;;15.00;12.00;;;;;7.68;68.18;101201.66;4863942;29;45315;-83
2022/04/09 07:59:08;;;;;;;;;10.50;7.50;;;;;7.69;67.95;101197.31;4888689;28;46417;-82
2022/04/09 08:01:34;;;;;;;;;12.50;10.25;;;;;7.62;67.74;101178.00;4921841;28;46513;-84
2022/04/09 08:03:59;;;;;;;;;12.75;10.00;;;;;7.70;67.98;101181.63;4902199;29;45345;-83
2022/04/09 08:06:25;;;;;;;;;10.00;10.00;;;;;7.80;67.52;101189.59;4902076;28;45214;-82
2022/04/09 08:08:50;;;;;;;;;11.25;9.00;;;;;7.87;67.29;101194.97;4915004;28;45210;-81
2022/04/09 08:11:16;;;;;;;;;14.25;10.00;;;;;7.89;67.06;101190.63;4904364;28;47468;-84
2022/04/09 08:13:41;;;;;;;;;9.25;8.75;;;;;7.94;66.80;101191.56;4905577;28;45269;-83
2022/04/09 08:16:07;;;;;;;;;10.00;10.00;;;;;8.02;66.73;101204.81;4905766;28;45344;-84
2022/04/09 08:18:32;;;;;;;;;9.50;9.25;;;;;8.07;65.88;101204.84;4923170;28;45386;-84
2022/04/09 08:20:58;;;;;;;;;6.50;5.25;;;;;8.05;65.63;101219.69;4905515;28;47482;-85
2022/04/09 08:23:23;;;;;;;;;3.25;2.25;;;;;7.95;64.89;101213.44;4905322;28;45312;-84
2022/04/09 08:25:49;;;;;;;;;6.25;6.00;;;;;7.91;64.64;101207.28;4923568;28;45643;-84
2022/04/09 08:28:16;;;;;;;;;7.75;6.75;;;;;8.04;64.62;101220.53;4905668;28;45760;-84
2022/04/09 08:30:52;;;;;;;;;7.00;7.00;;;;;8.02;64.64;101224.88;4923581;28;45346;-84
2022/04/09 08:33:21;;;;;;;;;5.75;5.75;;;;;8.02;64.63;101225.78;4904532;28;45444;-84
2022/04/09 08:35:54;;;;;;;;;9.00;8.00;;;;;8.05;64.61;101240.69;4893455;28;45330;-84
2022/04/09 08:38:20;;;;;;;;;11.25;6.75;;;;;7.87;64.37;101233.41;4905680;28;46241;-84
2022/04/09 08:40:47;;;;;;;;;6.00;4.00;;;;;7.88;64.56;101257.00;4905051;28;47728;-84
2022/04/09 08:43:13;;;;;;;;;3.75;3.75;;;;;7.78;64.36;101243.72;4905407;28;45769;-84
2022/04/09 08:45:42;;;;;;;;;4.00;4.00;;;;;7.80;64.41;101268.22;4904905;28;45265;-85
2022/04/09 08:48:09;;;;;;;;;4.50;4.00;;;;;7.66;64.29;101266.28;4922563;28;45482;-85
2022/04/09 08:50:36;;;;;;;;;10.25;7.00;;;;;7.66;64.41;101278.50;4921754;28;45457;-84
2022/04/09 08:53:06;;;;;;;;;9.00;7.00;;;;;7.54;64.12;101260.84;4905723;28;45221;-84
2022/04/09 08:55:34;;;;;;;;;4.00;3.50;;;;;7.53;63.81;101266.91;4904656;28;45442;-84
2022/04/09 08:58:00;;;;;;;;;7.00;7.00;;;;;7.45;63.88;101268.53;4905853;28;44908;-83
2022/04/09 09:00:25;;;;;;;;;4.25;4.00;;;;;7.57;64.17;101283.59;4917263;28;46778;-84
2022/04/09 09:03:00;;;;;;;;;7.25;5.00;;;;;7.66;64.28;101276.75;4896959;28;45221;-83
2022/04/09 09:05:39;;;;;;;;;7.00;6.00;;;;;7.65;64.03;101261.91;4922724;28;45315;-83
2022/04/09 09:08:42;;;;;;;;;9.25;8.00;;;;;7.89;63.58;101282.38;4904419;28;45462;-83
2022/04/09 09:11:08;;;;;;;;;4.50;4.50;;;;;7.85;63.86;101266.56;4886630;28;47124;-84
2022/04/09 09:13:52;;;;;;;;;7.50;5.50;;;;;7.98;63.61;101286.00;4921284;28;45285;-84
2022/04/09 09:16:25;;;;;;;;;9.00;7.25;;;;;8.03;63.48;101293.06;4903632;28;45258;-83
2022/04/09 09:19:02;;;;;;;;;8.00;8.00;;;;;8.01;63.59;101278.19;4903689;28;45487;-83
2022/04/09 09:21:31;;;;;;;;;7.25;7.25;;;;;8.20;63.43;101284.56;4919339;28;48419;-84
2022/04/09 09:24:13;;;;;;;;;6.75;6.50;;;;;8.35;63.25;101290.94;4921716;28;45449;-86
2022/04/09 09:26:39;;;;;;;;;7.00;5.50;;;;;8.39;62.98;101286.63;4910579;28;45224;-85
2022/04/09 09:29:05;;;;;;;;;6.75;4.50;;;;;8.48;62.84;101289.41;4904033;28;45433;-85
2022/04/09 09:31:47;;;;;;;;;8.00;7.00;;;;;8.49;62.58;101304.28;4903927;28;47068;-85
2022/04/09 09:34:14;;;;;;;;;7.25;5.25;;;;;8.48;62.32;101312.13;4919448;28;45209;-85
2022/04/09 09:36:42;;;;;;;;;5.25;5.25;;;;;8.43;62.22;101296.31;4921550;28;45409;-85
2022/04/09 09:39:11;;;;;;;;;5.50;5.50;;;;;8.48;62.09;101318.25;4904054;28;45542;-84
2022/04/09 09:41:48;;;;;;;;;7.00;3.50;;;;;8.49;61.59;101314.75;4903144;28;47016;-86
2022/04/09 09:44:13;;;;;;;;;8.50;8.00;;;;;8.51;61.82;101313.06;4920057;28;45158;-85
2022/04/09 09:46:39;;;;;;;;;5.25;5.25;;;;;8.68;61.51;101328.16;4916442;28;45353;-85
2022/04/09 09:49:04;;;;;;;;;6.00;5.00;;;;;8.82;61.72;101335.34;4919769;28;45355;-85
2022/04/09 09:51:33;;;;;;;;;8.75;8.00;;;;;8.96;61.83;101339.91;4920692;28;45981;-85
2022/04/09 09:54:13;;;;;;;;;5.50;5.50;;;;;8.93;60.66;101326.72;4920901;28;45429;-85
2022/04/09 09:56:41;;;;;;;;;2.25;2.25;;;;;9.01;60.91;101330.34;4902398;28;45218;-85
2022/04/09 09:59:15;;;;;;;;;5.00;5.00;;;;;9.00;60.64;101324.19;4904084;28;45551;-87
2022/04/09 10:01:47;;;;;;;;;7.50;6.25;;;;;9.05;60.52;101340.88;4920345;28;45352;-85
2022/04/09 10:04:20;;;;;;;;;4.50;4.50;;;;;9.00;60.41;101353.06;4903294;28;45386;-85
2022/04/09 10:06:46;;;;;;;;;5.25;4.25;;;;;8.99;60.46;101368.81;4921145;28;45394;-82
2022/04/09 10:09:18;;;;;;;;;7.00;7.00;;;;;8.86;60.42;101362.53;4892404;29;45445;-83
2022/04/09 10:11:50;;;;;;;;;3.75;3.75;;;;;8.73;60.53;101348.34;4918856;28;46216;-84
2022/04/09 10:14:22;;;;;;;;;5.50;5.50;;;;;8.83;60.58;101372.97;4902293;28;45440;-84
2022/04/09 10:16:52;;;;;;;;;5.50;4.50;;;;;8.82;60.74;101373.81;4902349;28;45418;-84
2022/04/09 10:19:19;;;;;;;;;7.75;5.50;;;;;8.74;60.97;101357.09;4900351;28;45758;-84
2022/04/09 10:21:48;;;;;;;;;7.75;7.00;;;;;8.80;61.13;101384.31;4903180;28;48334;-81
2022/04/09 10:24:18;;;;;;;;;5.50;5.50;;;;;8.73;61.04;101373.72;4902843;28;45745;-82
2022/04/09 10:27:04;;;;;;;;;;;;;;;;;;;;;
2022/04/09 10:29:47;;;;;;;;;6.75;6.75;;;;;8.63;61.10;101385.81;4866881;29;73346;-83
2022/04/09 10:46:05;;;;;;;;;4.50;4.00;;;;;8.51;60.73;101414.50;4788531;29;45741;-83
2022/04/09 10:49:04;;;;;;;;;9.00;7.50;;;;;8.47;61.07;101389.06;4776525;29;45305;-84
2022/04/09 11:13:14;;;;;;;;;;;;;;;;;;;;;
2022/04/09 11:16:01;;;;;;;;;8.00;7.75;;;;;9.41;57.59;101414.84;4731960;29;71851;-83
2022/04/09 12:03:20;;;;;;;;;9.50;6.75;;;;;12.86;50.98;101402.50;5618049;23;46562;-88
2022/04/09 12:05:56;;;;;;;;;7.00;6.00;;;;;12.96;50.49;101404.22;4886076;29;45192;-85
2022/04/09 12:15:58;;;;;;;;;10.50;8.00;;;;;13.11;49.38;101404.16;4794504;29;45525;-86
2022/04/09 12:19:06;;;;;;;;;;;;;;;;;;;;;
2022/04/09 12:36:07;;;;;;;;;9.00;7.50;;;;;14.38;46.53;101405.22;4773626;29;45463;-85
2022/04/09 12:41:56;;;;;;;;;11.00;9.25;;;;;14.66;44.10;101413.78;4826227;29;45511;-84
2022/04/09 12:44:31;;;;;;;;;8.25;7.75;;;;;14.91;44.22;101418.84;4829001;29;45215;-83
2022/04/09 12:46:57;;;;;;;;;4.50;4.50;;;;;15.20;43.68;101418.50;4867321;29;45521;-82
2022/04/09 12:49:30;;;;;;;;;7.25;7.25;;;;;15.39;43.49;101409.41;4899219;29;46971;-83
2022/04/09 12:51:57;;;;;;;;;5.00;4.75;;;;;15.70;43.42;101417.00;4889228;29;45386;-83
2022/04/09 12:54:30;;;;;;;;;7.00;6.00;;;;;15.92;42.90;101416.69;4888348;29;45615;-83
2022/04/09 12:57:06;;;;;;;;;7.25;6.75;;;;;15.89;42.27;101409.66;4888750;29;45684;-82
2022/04/09 12:59:33;;;;;;;;;8.25;7.00;;;;;15.60;41.02;101410.03;4894642;29;46286;-83
2022/04/09 13:01:58;;;;;;;;;6.00;5.00;;;;;15.50;41.13;101419.88;4904591;29;45378;-82
2022/04/09 13:04:40;;;;;;;;;5.67;4.33;;;;;15.64;42.19;101417.06;4905515;29;45470;-84
2022/04/09 13:07:08;;;;;;;;;5.25;5.25;;;;;15.70;41.19;101406.41;4885445;29;45537;-84
2022/04/09 13:09:37;;;;;;;;;5.00;5.00;;;;;15.86;40.13;101409.72;4882733;29;46175;-84
2022/04/09 13:12:03;;;;;;;;;4.25;4.25;;;;;16.10;40.61;101419.06;4888823;29;44777;-83
2022/04/09 13:14:29;;;;;;;;;7.00;7.00;;;;;16.28;40.30;101416.13;4904877;29;45549;-82
2022/04/09 13:17:00;;;;;;;;;4.00;4.00;;;;;16.41;40.38;101422.13;4904467;29;45340;-84
2022/04/09 14:20:23;;;;;;;;;4.00;3.00;;;;;29.99;30.01;101374.63;6142924;22;3282842;-87
2022/04/09 14:22:49;;;;;;;;;5.00;4.00;;;;;31.87;27.83;101377.88;6287352;22;47244;-88
2022/04/09 14:25:14;;;;;;;;;3.67;3.33;;;;;33.53;26.84;101383.47;6261604;22;45193;-93
2022/04/09 14:27:57;;;;;;;;;2.33;2.33;;;;;34.14;21.10;101357.00;6260556;22;45143;-91
2022/04/09 14:30:46;;;;;;;;;2.67;2.00;;;;;35.10;21.73;101369.66;6290967;22;45186;-88
2022/04/09 14:33:12;;;;;;;;;2.00;2.00;;;;;36.09;20.11;101363.47;6279738;22;47229;-87
2022/04/09 14:35:38;;;;;;;;;2.00;2.00;;;;;34.89;18.56;101363.50;6227568;22;45234;-90
2022/04/09 14:38:04;;;;;;;;;2.00;2.00;;;;;34.94;17.93;101360.28;6255755;22;45311;-85
2022/04/09 14:40:30;;;;;;;;;2.00;2.00;;;;;35.84;17.17;101372.41;6227595;22;45287;-88
2022/04/09 14:42:58;;;;;;;;;2.67;2.00;;;;;36.61;15.63;101369.03;6228329;22;47184;-88
2022/04/09 14:45:44;;;;;;;;;2.67;2.67;;;;;37.13;16.91;101365.44;6228904;22;45726;-85
2022/04/09 14:48:44;;;;;;;;;1.67;1.67;;;;;37.50;14.80;101366.97;6223624;22;45203;-86
2022/04/09 17:31:48;;;;;;;;;3.67;3.67;;;;;17.61;26.92;101438.44;6157065;22;47109;-84
2022/04/09 17:38:03;;;;;;;;;;;;;;;;;;;;;
2022/04/09 17:40:54;;;;;;;;;4.33;3.00;;;;;19.59;25.09;101431.59;6242004;22;73291;-84
2022/04/09 17:44:08;;;;;;;;;;;;;;;;;;;;;
2022/04/09 17:47:31;;;;;;;;;4.00;4.00;;;;;18.35;26.03;101429.66;6117577;23;71606;-85
2022/04/09 17:53:04;;;;;;;;;3.33;3.33;;;;;17.08;27.32;101445.75;6110012;23;45501;-87
2022/04/09 18:59:41;;;;;;;;;;;;;;;;;;;;;
2022/04/09 19:12:33;;;;;;;;;;;;;;;;;;;;;
2022/04/09 19:15:11;;;;;;;;;12.00;12.00;;;;;11.85;38.18;101566.97;6293215;22;74815;-87
2022/04/09 19:17:37;;;;;;;;;13.25;11.25;;;;;11.81;38.25;101573.09;6269544;22;45381;-88